Time;durP1;ratioP1;P1;durP2;ratioP2;P2;SDS_P1;SDS_P2;PMS_P1;PMS_P2;Temp;Humidity;BMP_temperature;BMP_pressure;BME280_temperature;BME280_humidity;BME280_pressure;Samples;Min_cycle;Max_cycle;Signal;HPM_P1;HPM_P2
2021/05/11 00:01:41;;;;;;;1.33;1.10;;;;;;;;;;5011314;28;20615;-81
2021/05/11 00:04:08;;;;;;;3.30;1.60;;;;;;;;;;5006802;28;20370;-81
2021/05/11 00:06:34;;;;;;;1.30;1.20;;;;;;;;;;5029601;28;20248;-81
2021/05/11 00:09:00;;;;;;;1.40;1.00;;;;;;;;;;5026868;28;20704;-82
2021/05/11 00:11:26;;;;;;;2.00;1.17;;;;;;;;;;5021303;28;20219;-81
2021/05/11 00:13:52;;;;;;;1.30;1.20;;;;;;;;;;5014617;28;20177;-81
2021/05/11 00:16:18;;;;;;;2.20;1.20;;;;;;;;;;5027831;28;20196;-81
2021/05/11 00:18:44;;;;;;;1.17;1.17;;;;;;;;;;5029856;28;20648;-81
2021/05/11 00:21:10;;;;;;;1.53;1.13;;;;;;;;;;5013578;28;20617;-82
2021/05/11 00:23:36;;;;;;;1.40;1.13;;;;;;;;;;5013241;28;20573;-80
2021/05/11 00:26:02;;;;;;;1.10;1.00;;;;;;;;;;5026778;28;20190;-81
2021/05/11 00:28:28;;;;;;;1.70;1.30;;;;;;;;;;5031856;28;20174;-82
2021/05/11 00:30:54;;;;;;;1.30;1.20;;;;;;;;;;5033898;28;20180;-82
2021/05/11 00:33:21;;;;;;;1.00;0.90;;;;;;;;;;5040255;28;20174;-81
2021/05/11 00:35:47;;;;;;;1.40;1.30;;;;;;;;;;5031353;28;20233;-81
2021/05/11 00:38:13;;;;;;;1.20;1.10;;;;;;;;;;5032476;28;20609;-81
2021/05/11 00:40:39;;;;;;;1.40;1.30;;;;;;;;;;5020251;28;20185;-81
2021/05/11 00:43:05;;;;;;;1.07;0.97;;;;;;;;;;5013952;28;20346;-81
2021/05/11 00:45:31;;;;;;;1.27;1.17;;;;;;;;;;5022012;28;20719;-81
2021/05/11 00:47:57;;;;;;;1.73;1.10;;;;;;;;;;5030698;28;20586;-81
2021/05/11 00:50:24;;;;;;;1.50;1.20;;;;;;;;;;5015111;28;20177;-81
2021/05/11 00:52:50;;;;;;;1.07;0.90;;;;;;;;;;5031743;28;21001;-82
2021/05/11 00:55:16;;;;;;;1.27;1.10;;;;;;;;;;5028344;28;20190;-81
2021/05/11 00:57:42;;;;;;;1.63;1.10;;;;;;;;;;5017675;28;20197;-82
2021/05/11 01:00:09;;;;;;;1.20;1.10;;;;;;;;;;5032035;28;20181;-81
2021/05/11 01:02:36;;;;;;;1.10;1.00;;;;;;;;;;5022931;28;20174;-81
2021/05/11 01:05:03;;;;;;;1.00;1.00;;;;;;;;;;5014866;28;20180;-81
2021/05/11 01:07:29;;;;;;;2.83;1.10;;;;;;;;;;5006508;28;20183;-81
2021/05/11 01:09:56;;;;;;;1.23;1.13;;;;;;;;;;5024706;28;20181;-81
2021/05/11 01:12:22;;;;;;;2.03;1.10;;;;;;;;;;5014227;28;20264;-81
2021/05/11 01:14:49;;;;;;;1.50;1.30;;;;;;;;;;5018856;28;20217;-81
2021/05/11 01:17:23;;;;;;;0.90;0.90;;;;;;;;;;5014301;28;20177;-81
2021/05/11 01:19:55;;;;;;;1.50;1.30;;;;;;;;;;5029480;28;20682;-82
2021/05/11 01:25:09;;;;;;;1.20;1.07;;;;;;;;;;5022177;28;20255;-81
2021/05/11 01:46:58;;;;;;;1.40;1.30;;;;;;;;;;5030666;28;20205;-81
2021/05/11 01:49:58;;;;;;;1.40;1.30;;;;;;;;;;5013828;28;20181;-81
2021/05/11 01:52:43;;;;;;;1.10;1.00;;;;;;;;;;5039651;28;20192;-81
2021/05/11 02:24:56;;;;;;;1.77;1.27;;;;;;;;;;5023115;28;20184;-82
2021/05/11 02:27:22;;;;;;;2.00;1.17;;;;;;;;;;5016746;28;20265;-82
2021/05/11 02:29:48;;;;;;;1.50;1.10;;;;;;;;;;5028107;28;20226;-81
2021/05/11 02:32:16;;;;;;;1.43;1.33;;;;;;;;;;4999085;28;20676;-81
2021/05/11 02:34:43;;;;;;;1.77;1.50;;;;;;;;;;5031352;28;20265;-81
2021/05/11 02:37:09;;;;;;;1.30;1.20;;;;;;;;;;5015911;28;20252;-81
2021/05/11 02:39:35;;;;;;;1.83;1.40;;;;;;;;;;5018176;28;20217;-81
2021/05/11 02:42:01;;;;;;;2.30;1.67;;;;;;;;;;5017442;28;20181;-82
2021/05/11 02:44:27;;;;;;;3.33;1.57;;;;;;;;;;5013824;28;20318;-81
2021/05/11 02:46:53;;;;;;;1.63;1.50;;;;;;;;;;5015932;28;20209;-81
2021/05/11 02:49:22;;;;;;;1.57;1.40;;;;;;;;;;5015951;28;20190;-81
2021/05/11 02:51:48;;;;;;;3.00;1.50;;;;;;;;;;5025698;28;20193;-81
2021/05/11 02:54:14;;;;;;;1.47;1.37;;;;;;;;;;5022894;28;20519;-82
2021/05/11 02:56:40;;;;;;;1.50;1.40;;;;;;;;;;5033286;28;20208;-82
2021/05/11 02:59:06;;;;;;;1.60;1.50;;;;;;;;;;5027068;28;25179;-81
2021/05/11 03:01:32;;;;;;;1.70;1.50;;;;;;;;;;5032785;28;20635;-82
2021/05/11 03:03:58;;;;;;;2.45;1.70;;;;;;;;;;5032298;28;20183;-82
2021/05/11 03:06:24;;;;;;;2.10;1.60;;;;;;;;;;5014253;28;20170;-81
2021/05/11 03:08:50;;;;;;;1.43;1.33;;;;;;;;;;5018748;28;20332;-81
2021/05/11 03:11:16;;;;;;;1.70;1.60;;;;;;;;;;5014778;28;20209;-82
2021/05/11 03:13:42;;;;;;;1.60;1.50;;;;;;;;;;5033709;28;20175;-81
2021/05/11 03:16:08;;;;;;;1.40;1.30;;;;;;;;;;5011653;28;20198;-80
2021/05/11 03:18:34;;;;;;;1.63;1.53;;;;;;;;;;5022419;28;20191;-81
2021/05/11 03:21:00;;;;;;;1.63;1.53;;;;;;;;;;5006689;28;20521;-81
2021/05/11 03:23:26;;;;;;;1.60;1.50;;;;;;;;;;5034710;28;20182;-81
2021/05/11 03:25:52;;;;;;;1.63;1.53;;;;;;;;;;5038638;28;20645;-81
2021/05/11 03:28:18;;;;;;;1.70;1.50;;;;;;;;;;5028199;28;20190;-81
2021/05/11 03:30:44;;;;;;;1.70;1.60;;;;;;;;;;5032598;28;20261;-81
2021/05/11 03:33:11;;;;;;;2.17;1.97;;;;;;;;;;5015800;28;20596;-81
2021/05/11 03:35:37;;;;;;;1.90;1.70;;;;;;;;;;5015319;28;20654;-81
2021/05/11 03:38:04;;;;;;;1.70;1.60;;;;;;;;;;5028621;28;20203;-81
2021/05/11 03:40:31;;;;;;;1.80;1.70;;;;;;;;;;5021994;28;20185;-82
2021/05/11 03:43:03;;;;;;;2.07;1.87;;;;;;;;;;5012600;28;20182;-80
2021/05/11 03:45:35;;;;;;;2.20;2.00;;;;;;;;;;5027011;28;20611;-80
2021/05/11 03:48:01;;;;;;;1.97;1.70;;;;;;;;;;5017196;28;20186;-80
2021/05/11 03:50:27;;;;;;;1.90;1.70;;;;;;;;;;5030368;28;20185;-80
2021/05/11 03:52:53;;;;;;;2.60;1.93;;;;;;;;;;5023016;28;20241;-80
2021/05/11 03:55:19;;;;;;;2.40;1.80;;;;;;;;;;5030390;28;20196;-81
2021/05/11 03:57:45;;;;;;;1.90;1.70;;;;;;;;;;5030711;28;20262;-81
2021/05/11 04:00:12;;;;;;;1.83;1.73;;;;;;;;;;5034614;28;20197;-82
2021/05/11 04:02:38;;;;;;;2.13;1.93;;;;;;;;;;5030111;28;20193;-80
2021/05/11 04:05:08;;;;;;;2.10;2.00;;;;;;;;;;5030439;28;20625;-80
2021/05/11 04:07:35;;;;;;;1.90;1.80;;;;;;;;;;5037006;28;20170;-81
2021/05/11 04:10:03;;;;;;;2.30;2.10;;;;;;;;;;5014084;28;20182;-81
2021/05/11 04:13:07;;;;;;;4.13;2.20;;;;;;;;;;5032205;28;20768;-82
2021/05/11 04:18:00;;;;;;;2.10;1.97;;;;;;;;;;5029683;28;20587;-81
2021/05/11 04:20:26;;;;;;;2.23;1.93;;;;;;;;;;5039365;28;20687;-81
2021/05/11 04:22:52;;;;;;;1.70;1.60;;;;;;;;;;5028616;28;20242;-81
2021/05/11 04:25:20;;;;;;;2.20;2.00;;;;;;;;;;5029824;28;20210;-81
2021/05/11 04:27:46;;;;;;;2.13;1.90;;;;;;;;;;5025094;28;20640;-80
2021/05/11 04:30:12;;;;;;;2.33;2.17;;;;;;;;;;5015429;28;20633;-80
2021/05/11 04:32:38;;;;;;;2.25;2.10;;;;;;;;;;5016786;28;20240;-81
2021/05/11 04:35:04;;;;;;;2.50;2.30;;;;;;;;;;5030522;28;20897;-80
2021/05/11 04:37:30;;;;;;;2.23;2.13;;;;;;;;;;5018486;28;20320;-80
2021/05/11 04:39:56;;;;;;;3.03;2.43;;;;;;;;;;5022144;28;20667;-80
2021/05/11 04:42:22;;;;;;;2.47;2.27;;;;;;;;;;5029840;28;20225;-80
2021/05/11 04:44:51;;;;;;;2.70;2.50;;;;;;;;;;5021625;28;20285;-80
2021/05/11 04:47:21;;;;;;;2.70;2.50;;;;;;;;;;5010402;28;20744;-80
2021/05/11 04:49:47;;;;;;;2.70;2.50;;;;;;;;;;5011417;28;20487;-79
2021/05/11 04:52:13;;;;;;;2.23;2.03;;;;;;;;;;5014079;28;20273;-80
2021/05/11 04:54:39;;;;;;;2.63;2.23;;;;;;;;;;5012821;28;20273;-79
2021/05/11 04:57:05;;;;;;;2.77;2.47;;;;;;;;;;5015305;28;20753;-79
2021/05/11 04:59:31;;;;;;;2.10;1.90;;;;;;;;;;5020019;28;20201;-79
2021/05/11 05:01:57;;;;;;;2.73;2.33;;;;;;;;;;5029781;28;20189;-79
2021/05/11 05:04:24;;;;;;;2.63;2.43;;;;;;;;;;5030888;28;20618;-79
2021/05/11 05:06:50;;;;;;;2.43;2.23;;;;;;;;;;5001438;28;20182;-79
2021/05/11 05:09:16;;;;;;;2.37;2.17;;;;;;;;;;5029734;28;20597;-79
2021/05/11 05:11:42;;;;;;;2.50;2.30;;;;;;;;;;5030225;28;20204;-81
2021/05/11 05:14:08;;;;;;;2.50;2.30;;;;;;;;;;5031133;28;20658;-80
2021/05/11 05:16:35;;;;;;;2.70;2.33;;;;;;;;;;5014020;28;20192;-80
2021/05/11 05:19:03;;;;;;;3.83;2.10;;;;;;;;;;5013898;28;20208;-80
2021/05/11 05:21:29;;;;;;;2.43;2.00;;;;;;;;;;5013443;28;20182;-80
2021/05/11 05:24:33;;;;;;;2.30;2.10;;;;;;;;;;5015699;28;20340;-80
2021/05/11 05:26:51;;;;;;;2.50;2.20;;;;;;;;;;5027146;28;20251;-81
2021/05/11 05:29:17;;;;;;;2.20;2.00;;;;;;;;;;5012966;28;20178;-81
2021/05/11 05:31:43;;;;;;;2.35;2.00;;;;;;;;;;5029687;28;20421;-80
2021/05/11 05:34:09;;;;;;;3.33;2.03;;;;;;;;;;5013995;28;20625;-80
2021/05/11 05:36:35;;;;;;;2.83;2.00;;;;;;;;;;5017446;28;20226;-80
2021/05/11 05:39:02;;;;;;;2.10;1.90;;;;;;;;;;5006927;28;20206;-81
2021/05/11 05:41:29;;;;;;;2.90;2.00;;;;;;;;;;5031135;28;20243;-80
2021/05/11 05:43:58;;;;;;;2.30;2.10;;;;;;;;;;5014282;28;20279;-80
2021/05/11 05:46:24;;;;;;;2.30;2.10;;;;;;;;;;5014287;28;20601;-80
2021/05/11 05:48:50;;;;;;;2.40;2.20;;;;;;;;;;5020188;28;20181;-80
2021/05/11 05:51:17;;;;;;;2.10;1.90;;;;;;;;;;5030086;28;20189;-80
2021/05/11 05:53:44;;;;;;;2.97;1.80;;;;;;;;;;5013009;28;20192;-80
2021/05/11 05:56:12;;;;;;;2.17;1.80;;;;;;;;;;5000169;28;20615;-80
2021/05/11 05:58:38;;;;;;;2.40;2.00;;;;;;;;;;5030417;28;20650;-80
2021/05/11 06:01:07;;;;;;;2.97;2.10;;;;;;;;;;5027731;28;20276;-80
2021/05/11 06:06:04;;;;;;;2.13;1.90;;;;;;;;;;5035732;28;20271;-80
2021/05/11 06:08:31;;;;;;;2.40;2.07;;;;;;;;;;5035084;28;20261;-80
2021/05/11 06:11:12;;;;;;;2.23;1.80;;;;;;;;;;5046723;28;20198;-80
2021/05/11 06:13:55;;;;;;;2.33;2.13;;;;;;;;;;5034118;28;20632;-80
2021/05/11 06:19:06;;;;;;;2.13;1.80;;;;;;;;;;5035391;28;20769;-79
2021/05/11 06:21:32;;;;;;;2.00;1.90;;;;;;;;;;5033143;28;20181;-79
2021/05/11 06:23:58;;;;;;;2.37;2.17;;;;;;;;;;5019433;28;20232;-79
2021/05/11 06:26:24;;;;;;;3.03;1.97;;;;;;;;;;5015420;28;20646;-79
2021/05/11 06:28:52;;;;;;;2.70;2.17;;;;;;;;;;5035840;28;20190;-80
2021/05/11 06:31:19;;;;;;;2.83;1.97;;;;;;;;;;5041600;28;20178;-80
2021/05/11 06:33:45;;;;;;;2.27;2.00;;;;;;;;;;5029753;28;20189;-80
2021/05/11 06:36:11;;;;;;;2.30;2.10;;;;;;;;;;5014552;28;20221;-79
2021/05/11 06:38:38;;;;;;;1.80;1.70;;;;;;;;;;5027134;28;20201;-80
2021/05/11 06:41:04;;;;;;;4.00;2.10;;;;;;;;;;5031546;28;20265;-80
2021/05/11 06:43:32;;;;;;;2.53;2.20;;;;;;;;;;5032853;28;20178;-80
2021/05/11 06:48:34;;;;;;;2.07;1.97;;;;;;;;;;5007074;28;20237;-81
2021/05/11 06:53:42;;;;;;;2.67;1.90;;;;;;;;;;5014239;28;20177;-81
2021/05/11 06:56:10;;;;;;;2.20;1.70;;;;;;;;;;5032338;28;20273;-82
2021/05/11 06:58:37;;;;;;;2.67;2.13;;;;;;;;;;5033063;28;20282;-81
2021/05/11 07:01:03;;;;;;;2.80;1.87;;;;;;;;;;5015314;28;20181;-80
2021/05/11 07:03:29;;;;;;;3.00;1.77;;;;;;;;;;5014465;28;20178;-80
2021/05/11 07:05:56;;;;;;;2.23;1.60;;;;;;;;;;5033306;28;20158;-84
2021/05/11 07:11:00;;;;;;;2.07;1.87;;;;;;;;;;5016476;28;20208;-81
2021/05/11 07:13:26;;;;;;;2.43;2.00;;;;;;;;;;5008432;28;20185;-81
2021/05/11 07:15:52;;;;;;;2.20;1.50;;;;;;;;;;5015649;28;20182;-81
2021/05/11 07:18:19;;;;;;;2.63;1.70;;;;;;;;;;5032666;28;20624;-81
2021/05/11 07:20:47;;;;;;;1.70;1.50;;;;;;;;;;5027980;28;20178;-81
2021/05/11 07:23:17;;;;;;;2.97;2.20;;;;;;;;;;5034270;28;20178;-81
2021/05/11 07:26:01;;;;;;;2.67;1.80;;;;;;;;;;5016596;28;20181;-81
2021/05/11 07:30:57;;;;;;;2.53;2.10;;;;;;;;;;5009130;28;20248;-80
2021/05/11 07:33:27;;;;;;;2.43;1.90;;;;;;;;;;5030310;28;20181;-82
2021/05/11 07:35:53;;;;;;;3.07;1.97;;;;;;;;;;5030596;28;20226;-81
2021/05/11 07:38:19;;;;;;;1.87;1.60;;;;;;;;;;5018210;28;20260;-80
2021/05/11 07:40:45;;;;;;;1.80;1.70;;;;;;;;;;5023847;28;20181;-81
2021/05/11 07:43:12;;;;;;;2.10;1.73;;;;;;;;;;5037083;28;20173;-81
2021/05/11 07:51:12;;;;;;;2.03;1.80;;;;;;;;;;5025172;28;20217;-82
2021/05/11 08:02:01;;;;;;;1.80;1.70;;;;;;;;;;5013858;28;20201;-80
2021/05/11 08:04:33;;;;;;;2.70;1.80;;;;;;;;;;5028955;28;20184;-81
2021/05/11 08:18:18;;;;;;;2.33;1.70;;;;;;;;;;5023540;28;20288;-81
2021/05/11 08:28:26;;;;;;;2.17;1.97;;;;;;;;;;5034688;28;20189;-81
2021/05/11 08:30:52;;;;;;;2.30;2.10;;;;;;;;;;5031875;28;20182;-81
2021/05/11 08:33:18;;;;;;;3.73;2.00;;;;;;;;;;5032540;28;20193;-80
2021/05/11 08:35:44;;;;;;;1.80;1.70;;;;;;;;;;5032510;28;20618;-80
2021/05/11 08:38:11;;;;;;;3.30;2.80;;;;;;;;;;5034501;28;20261;-84
2021/05/11 08:40:39;;;;;;;5.00;2.47;;;;;;;;;;5034798;28;20179;-84
2021/05/11 08:43:23;;;;;;;3.57;2.20;;;;;;;;;;5018930;28;20180;-84
2021/05/11 08:45:49;;;;;;;2.47;1.70;;;;;;;;;;5034985;28;20648;-84
2021/05/11 08:48:17;;;;;;;2.63;2.10;;;;;;;;;;5024138;28;20657;-81
2021/05/11 08:50:46;;;;;;;5.55;3.50;;;;;;;;;;5005695;28;20425;-81
2021/05/11 08:53:45;;;;;;;4.10;2.30;;;;;;;;;;5021800;28;20206;-81
2021/05/11 09:24:52;;;;;;;4.97;3.03;;;;;;;;;;5029899;28;20195;-83
2021/05/11 09:29:27;;;;;;;4.20;2.40;;;;;;;;;;5032690;28;20185;-82
2021/05/11 09:32:01;;;;;;;5.47;2.97;;;;;;;;;;5013209;28;20178;-82
2021/05/11 09:34:35;;;;;;;4.27;2.33;;;;;;;;;;5027873;28;20716;-82
2021/05/11 10:39:13;;;;;;;3.40;3.10;;;;;;;;;;5030954;28;20208;-81
2021/05/11 10:47:01;;;;;;;3.70;3.33;;;;;;;;;;5030203;28;20235;-80
2021/05/11 10:49:27;;;;;;;4.97;3.57;;;;;;;;;;5015316;28;20190;-81
2021/05/11 10:52:16;;;;;;;3.47;3.17;;;;;;;;;;5015179;28;20504;-81
2021/05/11 10:55:17;;;;;;;5.53;3.93;;;;;;;;;;5018929;28;20185;-80
2021/05/11 10:57:53;;;;;;;3.37;3.07;;;;;;;;;;5017027;28;20377;-79
2021/05/11 11:00:35;;;;;;;4.50;3.60;;;;;;;;;;4999986;28;20197;-79
2021/05/11 11:03:12;;;;;;;5.50;3.30;;;;;;;;;;5009369;28;20184;-79
2021/05/11 11:05:40;;;;;;;3.77;3.27;;;;;;;;;;5029971;28;20268;-80
2021/05/11 11:08:29;;;;;;;2.80;2.60;;;;;;;;;;5025066;28;20179;-79
2021/05/11 11:11:21;;;;;;;3.70;2.50;;;;;;;;;;5025462;28;20665;-79
2021/05/11 11:13:52;;;;;;;4.03;2.40;;;;;;;;;;5013684;28;20265;-79
2021/05/11 11:16:18;;;;;;;3.40;2.03;;;;;;;;;;5033668;28;21014;-80
2021/05/11 11:18:45;;;;;;;3.83;2.50;;;;;;;;;;5012606;28;20197;-79
2021/05/11 11:21:22;;;;;;;3.07;2.50;;;;;;;;;;5033719;28;20174;-80
2021/05/11 11:23:49;;;;;;;2.73;2.20;;;;;;;;;;5034507;28;20184;-81
2021/05/11 11:26:22;;;;;;;3.40;2.43;;;;;;;;;;5034033;28;20173;-81
2021/05/11 11:28:48;;;;;;;3.17;2.60;;;;;;;;;;5028104;28;20292;-81
2021/05/11 11:31:21;;;;;;;3.33;2.47;;;;;;;;;;5033693;28;20202;-81
2021/05/11 11:33:47;;;;;;;3.37;2.27;;;;;;;;;;5018442;28;20280;-81
2021/05/11 11:36:30;;;;;;;3.10;2.57;;;;;;;;;;5034413;28;20312;-80
2021/05/11 11:38:56;;;;;;;4.47;2.47;;;;;;;;;;5017386;28;20576;-80
2021/05/11 11:41:25;;;;;;;2.90;2.40;;;;;;;;;;5028600;28;20652;-81
2021/05/11 11:43:52;;;;;;;3.33;2.57;;;;;;;;;;5033677;28;20247;-81
2021/05/11 11:46:25;;;;;;;3.10;2.80;;;;;;;;;;5034878;28;20206;-81
2021/05/11 11:49:03;;;;;;;6.70;2.40;;;;;;;;;;5027059;28;20187;-81
2021/05/11 11:51:31;;;;;;;2.47;2.13;;;;;;;;;;5033610;28;20696;-84
2021/05/11 11:54:05;;;;;;;2.80;2.27;;;;;;;;;;5013600;28;20208;-82
2021/05/11 11:59:19;;;;;;;4.10;3.00;;;;;;;;;;5020939;28;20232;-82
2021/05/11 12:02:02;;;;;;;7.00;4.27;;;;;;;;;;5017002;28;20188;-81
2021/05/11 12:04:28;;;;;;;3.50;3.20;;;;;;;;;;5014003;28;20251;-81
2021/05/11 12:07:02;;;;;;;4.93;3.43;;;;;;;;;;5020709;28;20250;-81
2021/05/11 12:09:28;;;;;;;4.03;2.97;;;;;;;;;;5028050;28;20178;-81
2021/05/11 12:11:54;;;;;;;5.37;2.90;;;;;;;;;;5021006;28;20218;-81
2021/05/11 12:14:20;;;;;;;6.43;2.90;;;;;;;;;;5027728;28;20178;-81
2021/05/11 12:16:47;;;;;;;4.77;3.37;;;;;;;;;;5025265;28;20188;-82
2021/05/11 12:19:16;;;;;;;4.53;3.53;;;;;;;;;;5016603;28;20670;-81
2021/05/11 12:22:01;;;;;;;4.97;4.40;;;;;;;;;;5030841;28;20277;-82
2021/05/11 12:24:28;;;;;;;5.80;4.07;;;;;;;;;;5008235;28;20647;-81
2021/05/11 12:27:10;;;;;;;4.07;3.67;;;;;;;;;;5012933;28;20184;-81
2021/05/11 12:29:36;;;;;;;6.30;4.93;;;;;;;;;;5027060;28;20246;-82
2021/05/11 12:32:02;;;;;;;5.33;4.30;;;;;;;;;;5032932;28;20193;-83
2021/05/11 12:34:28;;;;;;;5.47;4.23;;;;;;;;;;5027220;28;20179;-83
2021/05/11 12:37:00;;;;;;;7.20;4.83;;;;;;;;;;5020979;28;20226;-82
2021/05/11 12:42:21;;;;;;;6.03;5.23;;;;;;;;;;5008609;28;20163;-82
2021/05/11 12:44:48;;;;;;;7.60;5.30;;;;;;;;;;5028643;28;20202;-81
2021/05/11 12:47:17;;;;;;;5.87;4.60;;;;;;;;;;5012454;28;20667;-81
2021/05/11 12:49:43;;;;;;;6.73;4.57;;;;;;;;;;5013215;28;20190;-81
2021/05/11 12:52:10;;;;;;;6.20;4.67;;;;;;;;;;4999493;28;20195;-82
2021/05/11 12:54:45;;;;;;;9.57;4.90;;;;;;;;;;5023739;28;20258;-82
2021/05/11 12:57:24;;;;;;;5.73;4.20;;;;;;;;;;5011630;28;20206;-83
2021/05/11 13:00:02;;;;;;;6.93;5.20;;;;;;;;;;5024202;28;20191;-83
2021/05/11 13:16:19;;;;;;;6.03;5.43;;;;;;;;;;5007002;28;20243;-81
2021/05/11 13:26:52;;;;;;;6.23;5.03;;;;;;;;;;5004071;28;20533;-82
2021/05/11 13:29:38;;;;;;;7.03;5.57;;;;;;;;;;5009026;28;20249;-82
2021/05/11 13:32:09;;;;;;;5.67;4.83;;;;;;;;;;5023951;28;20188;-82
2021/05/11 13:34:35;;;;;;;7.43;5.80;;;;;;;;;;5026556;28;20630;-82
2021/05/11 13:37:01;;;;;;;5.77;5.17;;;;;;;;;;5008596;28;20269;-82
2021/05/11 13:39:30;;;;;;;6.20;5.60;;;;;;;;;;5003445;28;20206;-82
2021/05/11 13:41:57;;;;;;;6.90;5.10;;;;;;;;;;5001746;28;20207;-82
2021/05/11 13:44:23;;;;;;;7.23;5.33;;;;;;;;;;5005718;28;20178;-81
2021/05/11 13:46:49;;;;;;;8.40;5.20;;;;;;;;;;5010777;28;20183;-82
2021/05/11 13:49:17;;;;;;;9.33;5.73;;;;;;;;;;5006546;28;20194;-82
2021/05/11 13:51:43;;;;;;;6.60;5.17;;;;;;;;;;5008824;28;20179;-82
2021/05/11 13:54:10;;;;;;;5.90;5.30;;;;;;;;;;5008470;28;20398;-81
2021/05/11 14:04:44;;;;;;;5.90;5.30;;;;;;;;;;5009548;28;20191;-82
2021/05/11 14:07:10;;;;;;;6.20;5.60;;;;;;;;;;5007971;28;20175;-82
2021/05/11 14:09:36;;;;;;;7.70;5.60;;;;;;;;;;5018658;28;20191;-81
2021/05/11 14:12:03;;;;;;;6.57;5.80;;;;;;;;;;5000994;28;20230;-81
2021/05/11 14:14:29;;;;;;;6.13;5.10;;;;;;;;;;5008913;28;20182;-82
2021/05/11 14:16:55;;;;;;;5.83;5.23;;;;;;;;;;5010138;28;20527;-82
2021/05/11 14:19:22;;;;;;;6.00;5.40;;;;;;;;;;5004487;28;20211;-81
2021/05/11 14:21:48;;;;;;;7.37;5.57;;;;;;;;;;5010562;28;20175;-81
2021/05/11 14:24:14;;;;;;;7.30;6.67;;;;;;;;;;5016326;28;20245;-81
2021/05/11 14:26:40;;;;;;;8.40;5.67;;;;;;;;;;5013250;28;20190;-81
2021/05/11 14:29:07;;;;;;;6.40;5.80;;;;;;;;;;5013891;28;20265;-81
2021/05/11 14:31:33;;;;;;;8.53;7.00;;;;;;;;;;5012827;28;20187;-82
2021/05/11 14:33:59;;;;;;;8.83;7.50;;;;;;;;;;5015345;28;20186;-82
2021/05/11 14:36:25;;;;;;;7.47;6.47;;;;;;;;;;5000502;28;20765;-82
2021/05/11 14:38:52;;;;;;;7.63;6.73;;;;;;;;;;5013288;28;20662;-82
2021/05/11 14:41:18;;;;;;;8.63;7.17;;;;;;;;;;5012064;28;20179;-83
2021/05/11 14:43:44;;;;;;;7.33;6.43;;;;;;;;;;5008309;28;20265;-82
2021/05/11 14:46:11;;;;;;;7.57;6.57;;;;;;;;;;5013150;28;20210;-82
2021/05/11 14:48:37;;;;;;;7.17;6.13;;;;;;;;;;5012127;28;20183;-81
2021/05/11 14:51:04;;;;;;;7.10;6.30;;;;;;;;;;5016807;28;20178;-82
2021/05/11 14:53:31;;;;;;;7.43;6.67;;;;;;;;;;5014910;28;20191;-81
2021/05/11 14:55:57;;;;;;;6.80;5.77;;;;;;;;;;5018637;28;20190;-81
2021/05/11 14:58:23;;;;;;;7.80;7.07;;;;;;;;;;5024391;28;20283;-82
2021/05/11 15:00:49;;;;;;;9.63;6.43;;;;;;;;;;5003355;28;20195;-81
2021/05/11 15:03:15;;;;;;;10.40;7.10;;;;;;;;;;5010158;28;20174;-81
2021/05/11 15:05:42;;;;;;;7.90;6.83;;;;;;;;;;5027698;28;20237;-82
2021/05/11 15:08:08;;;;;;;8.70;7.10;;;;;;;;;;5001715;28;20193;-81
2021/05/11 15:10:35;;;;;;;11.17;8.00;;;;;;;;;;5014565;28;20463;-81
2021/05/11 15:13:01;;;;;;;10.97;8.77;;;;;;;;;;5023135;28;20190;-81
2021/05/11 15:15:27;;;;;;;12.00;8.80;;;;;;;;;;5009529;28;20185;-82
2021/05/11 15:20:20;;;;;;;11.93;8.30;;;;;;;;;;5015387;28;20968;-81
2021/05/11 15:22:51;;;;;;;10.43;7.80;;;;;;;;;;5012746;28;20182;-82
2021/05/11 15:25:18;;;;;;;10.10;7.70;;;;;;;;;;5012079;28;20174;-82
2021/05/11 15:27:44;;;;;;;9.23;7.60;;;;;;;;;;5013107;28;20185;-81
2021/05/11 15:30:10;;;;;;;8.33;7.53;;;;;;;;;;5012808;28;21531;-82
2021/05/11 15:32:40;;;;;;;9.33;7.80;;;;;;;;;;5006401;28;20253;-81
2021/05/11 15:35:11;;;;;;;8.90;7.40;;;;;;;;;;5014161;28;20182;-81
2021/05/11 15:37:37;;;;;;;8.33;7.50;;;;;;;;;;5029222;28;20224;-82
2021/05/11 15:40:05;;;;;;;8.83;6.53;;;;;;;;;;5024075;28;20204;-81
2021/05/11 15:42:31;;;;;;;8.37;6.80;;;;;;;;;;5012852;28;20180;-82
2021/05/11 15:44:57;;;;;;;9.13;7.57;;;;;;;;;;5019019;28;20198;-82
2021/05/11 15:47:23;;;;;;;8.37;7.50;;;;;;;;;;5028862;28;20175;-82
2021/05/11 15:49:49;;;;;;;7.63;6.83;;;;;;;;;;5019848;28;20569;-81
2021/05/11 15:52:15;;;;;;;7.87;7.03;;;;;;;;;;5040736;28;20185;-81
2021/05/11 15:54:42;;;;;;;8.90;6.73;;;;;;;;;;4999076;28;20194;-81
2021/05/11 15:57:08;;;;;;;9.60;7.40;;;;;;;;;;5010601;28;20178;-82
2021/05/11 15:59:34;;;;;;;7.70;7.00;;;;;;;;;;5019164;28;20213;-82
2021/05/11 16:02:00;;;;;;;7.67;6.97;;;;;;;;;;5014696;28;20193;-81
2021/05/11 16:04:27;;;;;;;8.90;7.97;;;;;;;;;;5014422;28;20170;-82
2021/05/11 16:06:53;;;;;;;7.40;6.47;;;;;;;;;;5011791;28;20246;-82
2021/05/11 16:09:23;;;;;;;9.00;7.53;;;;;;;;;;5012305;28;20306;-90
2021/05/11 16:11:49;;;;;;;8.17;7.37;;;;;;;;;;5031947;28;20266;-81
2021/05/11 16:14:16;;;;;;;8.03;6.40;;;;;;;;;;5021491;28;20194;-81
2021/05/11 16:16:42;;;;;;;7.17;6.07;;;;;;;;;;5024581;28;20213;-80
2021/05/11 16:19:08;;;;;;;9.23;6.63;;;;;;;;;;5035228;28;20271;-80
2021/05/11 16:21:34;;;;;;;8.30;7.17;;;;;;;;;;5019498;28;20557;-81
2021/05/11 16:24:00;;;;;;;8.90;6.10;;;;;;;;;;5031041;28;20178;-80
2021/05/11 16:26:26;;;;;;;8.20;6.63;;;;;;;;;;5015292;28;20208;-80
2021/05/11 16:28:53;;;;;;;6.37;5.77;;;;;;;;;;5013491;28;20174;-80
2021/05/11 16:31:19;;;;;;;5.77;5.27;;;;;;;;;;5015109;28;20499;-80
2021/05/11 16:33:45;;;;;;;7.57;6.00;;;;;;;;;;5014703;28;20653;-80
2021/05/11 16:36:12;;;;;;;8.10;6.43;;;;;;;;;;5015095;28;20222;-80
2021/05/11 16:38:38;;;;;;;9.10;6.07;;;;;;;;;;5013792;28;20610;-80
2021/05/11 16:41:04;;;;;;;8.57;6.10;;;;;;;;;;5003949;28;20217;-80
2021/05/11 16:43:30;;;;;;;6.17;5.37;;;;;;;;;;5013175;28;20184;-81
2021/05/11 16:46:01;;;;;;;6.13;5.53;;;;;;;;;;5026830;28;20200;-81
2021/05/11 16:48:27;;;;;;;10.33;7.17;;;;;;;;;;5028594;28;20202;-80
2021/05/11 16:50:53;;;;;;;6.13;5.53;;;;;;;;;;5018775;28;20209;-81
2021/05/11 16:53:19;;;;;;;7.20;5.77;;;;;;;;;;5023568;28;20186;-81
2021/05/11 16:55:45;;;;;;;5.33;4.83;;;;;;;;;;5031259;28;20178;-81
2021/05/11 16:58:12;;;;;;;5.90;5.33;;;;;;;;;;5031529;28;20236;-81
2021/05/11 17:00:39;;;;;;;7.13;5.40;;;;;;;;;;5012705;28;20635;-81
2021/05/11 17:03:05;;;;;;;6.50;5.43;;;;;;;;;;5032076;28;20169;-79
2021/05/11 17:05:31;;;;;;;6.27;5.67;;;;;;;;;;5018231;28;20185;-80
2021/05/11 17:07:57;;;;;;;7.10;6.40;;;;;;;;;;5031750;28;20522;-80
2021/05/11 17:10:24;;;;;;;7.73;5.70;;;;;;;;;;5015716;28;20289;-81
2021/05/11 17:12:51;;;;;;;5.43;4.93;;;;;;;;;;5013867;28;20460;-80
2021/05/11 17:15:17;;;;;;;5.80;5.20;;;;;;;;;;5018779;28;20232;-81
2021/05/11 17:17:46;;;;;;;5.43;4.93;;;;;;;;;;5032183;28;20269;-80
2021/05/11 17:20:12;;;;;;;5.67;5.17;;;;;;;;;;5027843;28;20213;-79
2021/05/11 17:22:38;;;;;;;5.97;5.37;;;;;;;;;;5021388;28;20194;-82
2021/05/11 17:25:06;;;;;;;5.43;4.93;;;;;;;;;;5016007;28;20640;-82
2021/05/11 17:27:32;;;;;;;6.27;5.57;;;;;;;;;;5017091;28;20242;-83
2021/05/11 17:30:02;;;;;;;5.23;4.73;;;;;;;;;;5030011;28;20287;-81
2021/05/11 17:32:29;;;;;;;6.03;5.50;;;;;;;;;;5030529;28;20256;-79
2021/05/11 17:34:55;;;;;;;5.60;5.07;;;;;;;;;;5013308;28;20182;-80
2021/05/11 17:37:22;;;;;;;6.13;5.53;;;;;;;;;;5014600;28;20692;-80
2021/05/11 17:39:48;;;;;;;4.87;4.47;;;;;;;;;;5010505;28;20598;-80
2021/05/11 17:42:14;;;;;;;5.80;5.13;;;;;;;;;;5012880;28;20169;-79
2021/05/11 17:44:40;;;;;;;5.03;4.53;;;;;;;;;;5013852;28;21068;-79
2021/05/11 17:47:06;;;;;;;5.13;4.63;;;;;;;;;;5014779;28;20205;-80
2021/05/11 17:49:33;;;;;;;5.50;5.00;;;;;;;;;;5033015;28;20260;-80
2021/05/11 17:51:59;;;;;;;4.47;4.07;;;;;;;;;;5032484;28;20190;-79
2021/05/11 17:54:25;;;;;;;4.80;4.10;;;;;;;;;;5014151;28;20337;-80
2021/05/11 17:56:51;;;;;;;4.53;3.97;;;;;;;;;;5035060;28;20186;-80
2021/05/11 17:59:17;;;;;;;5.00;3.87;;;;;;;;;;5035070;28;20197;-80
2021/05/11 18:01:43;;;;;;;5.20;4.20;;;;;;;;;;5037135;28;20162;-80
2021/05/11 18:04:09;;;;;;;4.93;4.13;;;;;;;;;;5036228;28;20292;-80
2021/05/11 18:06:35;;;;;;;4.30;3.90;;;;;;;;;;5028000;28;20184;-80
2021/05/11 18:09:03;;;;;;;4.60;4.20;;;;;;;;;;5018117;28;20182;-80
2021/05/11 18:11:29;;;;;;;4.00;3.60;;;;;;;;;;5033929;28;20193;-79
2021/05/11 18:13:56;;;;;;;4.40;4.10;;;;;;;;;;5036141;28;20280;-80
2021/05/11 18:16:22;;;;;;;3.90;3.60;;;;;;;;;;5037179;28;20206;-80
2021/05/11 18:18:48;;;;;;;4.53;3.93;;;;;;;;;;5019091;28;20724;-79
2021/05/11 18:21:14;;;;;;;3.80;3.50;;;;;;;;;;5009743;28;20233;-80
2021/05/11 18:23:40;;;;;;;4.03;3.73;;;;;;;;;;5016313;28;20235;-80
2021/05/11 18:26:06;;;;;;;4.53;3.50;;;;;;;;;;5014188;28;20174;-80
2021/05/11 18:28:32;;;;;;;3.97;3.57;;;;;;;;;;5016363;28;20192;-80
2021/05/11 18:30:59;;;;;;;4.70;3.83;;;;;;;;;;5020112;28;20193;-80
2021/05/11 18:33:25;;;;;;;3.90;3.60;;;;;;;;;;5030041;28;20267;-80
2021/05/11 18:35:51;;;;;;;3.87;3.50;;;;;;;;;;5022801;28;20209;-80
2021/05/11 18:38:23;;;;;;;4.57;4.10;;;;;;;;;;5039221;28;20793;-79
2021/05/11 18:40:49;;;;;;;3.63;3.33;;;;;;;;;;5014800;28;20248;-82
2021/05/11 18:43:15;;;;;;;6.87;6.00;;;;;;;;;;5038760;28;20173;-82
2021/05/11 18:45:41;;;;;;;6.63;4.87;;;;;;;;;;5034832;28;20200;-83
2021/05/11 18:48:07;;;;;;;5.60;5.07;;;;;;;;;;5018111;28;20189;-80